createdAt,value
2023-02-17T00:03:27.035Z,22.83
2023-02-17T00:06:30.901Z,19.70
2023-02-17T00:09:55.360Z,20.35
2023-02-17T00:13:17.947Z,19.37
2023-02-17T00:16:33.970Z,20.75
2023-02-17T00:19:38.350Z,21.05
2023-02-17T00:23:02.994Z,20.23
2023-02-17T00:26:06.876Z,19.10
2023-02-17T00:29:25.192Z,20.50
2023-02-17T00:32:45.308Z,20.37
2023-02-17T00:36:00.009Z,20.17
2023-02-17T00:39:02.089Z,18.53
2023-02-17T00:42:16.989Z,17.30
2023-02-17T00:45:18.725Z,20.90
2023-02-17T00:48:33.041Z,19.48
2023-02-17T00:51:34.849Z,20.15
2023-02-17T00:54:49.977Z,17.83
2023-02-17T00:57:51.977Z,22.27
2023-02-17T01:01:07.957Z,21.73
2023-02-17T01:04:10.134Z,20.70
2023-02-17T01:07:24.973Z,20.85
2023-02-17T01:10:42.488Z,21.80
2023-02-17T01:14:11.957Z,18.90
2023-02-17T01:17:19.968Z,19.92
2023-02-17T01:20:40.786Z,19.95
2023-02-17T01:24:03.013Z,19.50
2023-02-17T01:27:37.385Z,20.63
2023-02-17T01:31:05.136Z,22.10
2023-02-17T01:34:13.194Z,21.37
2023-02-17T01:37:27.973Z,21.40
2023-02-17T01:40:30.001Z,21.33
2023-02-17T01:43:46.228Z,20.53
2023-02-17T01:46:50.042Z,20.35
2023-02-17T01:50:19.236Z,19.73
2023-02-17T01:53:52.969Z,19.92
2023-02-17T01:57:02.152Z,20.35
2023-02-17T02:00:13.253Z,19.17
2023-02-17T02:03:24.942Z,23.25
2023-02-17T02:06:41.985Z,21.75
2023-02-17T02:10:20.926Z,21.40
2023-02-17T02:14:18.073Z,23.20
2023-02-17T02:17:51.023Z,21.33
2023-02-17T02:21:13.147Z,23.00
2023-02-17T02:24:46.009Z,21.48
2023-02-17T02:28:27.035Z,20.30
2023-02-17T02:32:03.082Z,21.35
2023-02-17T02:35:14.890Z,23.17
2023-02-17T02:38:43.966Z,20.85
2023-02-17T02:42:03.038Z,20.05
2023-02-17T02:45:19.014Z,20.10
2023-02-17T02:48:27.304Z,20.62
2023-02-17T02:51:50.537Z,20.10
2023-02-17T02:55:24.002Z,19.83
2023-02-17T02:59:10.057Z,18.92
2023-02-17T03:02:31.905Z,21.25
2023-02-17T03:06:08.386Z,21.55
2023-02-17T03:13:09.018Z,24.65
2023-02-17T03:16:10.688Z,25.50
2023-02-17T03:23:26.015Z,20.33
2023-02-17T03:26:27.791Z,19.60
2023-02-17T03:33:41.102Z,19.45
2023-02-17T03:36:49.700Z,18.12
2023-02-17T03:40:14.069Z,20.48
2023-02-17T03:43:22.677Z,18.93
2023-02-17T03:46:31.041Z,19.83
2023-02-17T03:49:40.012Z,19.92
2023-02-17T03:52:48.992Z,20.65
2023-02-17T03:55:57.500Z,19.50
2023-02-17T03:59:06.012Z,19.13
2023-02-17T04:02:15.197Z,19.27
2023-02-17T04:05:23.082Z,20.50
2023-02-17T04:08:39.012Z,19.33
2023-02-17T04:11:53.994Z,19.95
2023-02-17T04:15:08.989Z,19.37
2023-02-17T04:18:18.953Z,18.60
2023-02-17T04:21:27.020Z,20.33
2023-02-17T04:24:36.987Z,18.60
2023-02-17T04:27:45.196Z,19.23
2023-02-17T04:31:18.085Z,19.20
2023-02-17T04:34:19.908Z,18.98
2023-02-17T04:37:35.061Z,19.33
2023-02-17T04:40:46.360Z,20.52
2023-02-17T04:43:55.085Z,21.08
2023-02-17T04:47:10.046Z,18.93
2023-02-17T04:50:17.719Z,18.23
2023-02-17T04:53:33.008Z,20.00
2023-02-17T04:56:41.029Z,19.02
2023-02-17T04:59:58.041Z,18.80
2023-02-17T05:03:29.029Z,16.67
2023-02-17T05:06:44.034Z,17.52
2023-02-17T05:09:59.140Z,18.10
2023-02-17T05:13:07.031Z,17.05
2023-02-17T05:16:22.039Z,18.05
2023-02-17T05:19:38.129Z,17.33
2023-02-17T05:23:02.127Z,16.75
2023-02-17T05:26:10.025Z,17.52
2023-02-17T05:29:19.285Z,13.43
2023-02-17T05:32:35.021Z,16.75
2023-02-17T05:35:43.113Z,16.17
2023-02-17T05:50:18.053Z,15.13
2023-02-17T05:53:34.054Z,15.83
2023-02-17T05:57:20.014Z,16.65
2023-02-17T06:00:36.686Z,17.33
2023-02-17T06:03:47.417Z,15.18
2023-02-17T06:06:55.544Z,17.48
2023-02-17T06:10:20.575Z,17.67
2023-02-17T06:13:36.055Z,19.15
2023-02-17T06:20:23.073Z,18.50
2023-02-17T06:23:31.573Z,20.27
2023-02-17T06:26:40.033Z,20.87
2023-02-17T06:29:51.872Z,15.23
2023-02-17T06:33:20.025Z,20.73
2023-02-17T06:36:35.005Z,20.05
2023-02-17T06:39:39.244Z,16.83
2023-02-17T06:43:03.057Z,15.90
2023-02-17T06:50:45.087Z,14.20
2023-02-17T06:53:54.165Z,14.30
2023-02-17T06:57:09.009Z,15.02
2023-02-17T07:00:44.105Z,14.47
2023-02-17T07:04:01.014Z,14.98
2023-02-17T07:07:03.516Z,13.65
2023-02-17T07:10:41.145Z,13.48
2023-02-17T07:13:43.597Z,14.27
2023-02-17T07:16:58.072Z,14.63
2023-02-17T07:20:20.400Z,16.08
2023-02-17T07:24:09.017Z,13.13
2023-02-17T07:27:11.068Z,13.70
2023-02-17T07:30:48.763Z,13.60
2023-02-17T07:34:24.030Z,13.83
2023-02-17T07:37:25.709Z,13.27
2023-02-17T07:44:13.241Z,12.63
2023-02-17T07:51:46.154Z,11.30
2023-02-17T07:55:01.068Z,12.85
2023-02-17T08:02:36.213Z,13.30
2023-02-17T08:05:44.824Z,15.45
2023-02-17T08:08:54.054Z,14.40
2023-02-17T08:16:30.203Z,14.02
2023-02-17T08:23:14.752Z,13.02
2023-02-17T08:26:27.066Z,13.20
2023-02-17T08:29:37.551Z,12.07
2023-02-17T08:32:46.046Z,11.12
2023-02-17T08:35:55.138Z,10.27
2023-02-17T08:39:16.170Z,10.85
2023-02-17T08:42:20.773Z,10.37
2023-02-17T08:45:42.139Z,9.50
2023-02-17T08:49:22.234Z,9.35
2023-02-17T08:52:34.268Z,10.00
2023-02-17T09:00:28.194Z,9.30
2023-02-17T09:07:42.119Z,10.38
2023-02-17T09:10:58.166Z,10.00
2023-02-17T09:18:05.288Z,8.43
2023-02-17T09:21:24.446Z,9.13
2023-02-17T09:24:47.266Z,8.98
2023-02-17T09:27:55.792Z,9.50
2023-02-17T09:35:01.396Z,6.97
2023-02-17T09:38:33.073Z,8.45
2023-02-17T09:53:58.329Z,9.20
2023-02-17T09:57:31.779Z,8.32
2023-02-17T10:04:27.727Z,9.27
2023-02-17T10:07:48.122Z,9.82
2023-02-17T10:11:18.750Z,12.53
2023-02-17T10:19:05.640Z,12.20
2023-02-17T10:22:33.613Z,14.48
2023-02-17T10:30:04.239Z,13.63
2023-02-17T10:38:02.133Z,13.23
2023-02-17T10:41:24.032Z,13.70
2023-02-17T10:44:44.143Z,15.23
2023-02-17T10:47:48.098Z,14.73
2023-02-17T10:51:07.161Z,17.75
2023-02-17T10:59:00.198Z,17.52
2023-02-17T11:02:34.647Z,16.95
2023-02-17T11:06:40.290Z,17.50
2023-02-17T11:13:36.672Z,17.08
2023-02-17T11:16:52.143Z,17.60
2023-02-17T11:20:12.669Z,17.92
2023-02-17T11:27:18.156Z,16.15
2023-02-17T11:34:02.222Z,17.55
2023-02-17T11:37:22.225Z,17.15
2023-02-17T11:41:15.275Z,16.30
2023-02-17T11:44:42.432Z,17.25
2023-02-17T11:48:31.064Z,17.05
2023-02-17T11:52:03.594Z,17.48
2023-02-17T11:55:45.600Z,18.58
2023-02-17T11:59:20.434Z,18.43
2023-02-17T12:02:51.244Z,17.85
2023-02-17T12:06:21.165Z,18.55
2023-02-17T12:09:55.245Z,20.02
2023-02-17T12:13:36.352Z,19.83
2023-02-17T12:21:15.281Z,19.02
2023-02-17T12:48:11.347Z,22.25
2023-02-17T12:59:59.507Z,24.50
2023-02-17T13:03:29.848Z,22.95
2023-02-17T13:07:35.140Z,21.42
2023-02-17T13:11:02.776Z,23.98
2023-02-17T13:14:20.168Z,20.03
2023-02-17T13:17:47.484Z,21.17
2023-02-17T13:33:11.624Z,22.07
2023-02-17T13:36:32.471Z,22.67
2023-02-17T13:39:50.898Z,22.80
2023-02-17T13:43:10.821Z,22.58
2023-02-17T13:46:28.000Z,21.55
2023-02-17T14:05:50.258Z,24.12
2023-02-17T14:09:36.196Z,21.80
2023-02-17T14:12:40.857Z,21.48
2023-02-17T14:16:01.187Z,23.25
2023-02-17T14:19:22.393Z,22.58
2023-02-17T14:35:18.298Z,22.98
2023-02-17T14:39:13.441Z,23.02
2023-02-17T14:46:25.259Z,20.67
2023-02-17T14:49:33.172Z,21.42
2023-02-17T15:00:43.219Z,20.35
2023-02-17T15:03:58.555Z,20.67
2023-02-17T15:11:01.224Z,20.23
2023-02-17T15:25:39.477Z,21.85
2023-02-17T15:40:11.401Z,19.47
2023-02-17T15:59:19.427Z,19.53
2023-02-17T16:02:32.185Z,21.23
2023-02-17T16:09:17.234Z,18.98
2023-02-17T16:21:19.896Z,18.35
2023-02-17T16:24:30.857Z,22.45
2023-02-17T16:27:39.325Z,20.45
2023-02-17T16:30:50.781Z,19.70
2023-02-17T16:41:59.218Z,19.90
2023-02-17T16:45:22.260Z,19.65
2023-02-17T16:48:37.510Z,21.23
2023-02-17T16:51:46.296Z,20.20
2023-02-17T16:55:25.220Z,20.52
2023-02-17T16:58:42.219Z,21.05
2023-02-17T17:05:38.193Z,21.62
2023-02-17T17:08:43.538Z,20.67
2023-02-17T17:11:59.315Z,20.17
2023-02-17T17:15:38.305Z,24.08
2023-02-17T17:18:57.850Z,21.48
2023-02-17T17:25:38.563Z,21.57
2023-02-17T17:28:50.857Z,22.02
2023-02-17T17:32:22.797Z,22.27
2023-02-17T17:39:04.433Z,21.00
2023-02-17T17:42:58.023Z,22.57
2023-02-17T17:50:23.615Z,23.20
2023-02-17T17:53:50.230Z,22.95
2023-02-17T17:57:25.983Z,22.45
2023-02-17T18:00:36.278Z,22.97
2023-02-17T18:16:39.286Z,23.80
2023-02-17T18:19:59.491Z,23.93
2023-02-17T18:34:50.773Z,21.87
2023-02-17T18:42:02.289Z,22.62
2023-02-17T18:45:11.222Z,22.92
2023-02-17T18:48:26.801Z,22.85
2023-02-17T18:59:29.254Z,22.40
2023-02-17T19:03:12.499Z,22.98
2023-02-17T19:06:37.717Z,23.02
2023-02-17T19:09:45.898Z,23.15
2023-02-17T19:13:16.894Z,24.47
2023-02-17T19:20:12.342Z,24.08
2023-02-17T19:23:43.275Z,24.25
2023-02-17T19:31:43.609Z,24.53
2023-02-17T19:35:55.628Z,26.30
2023-02-17T19:47:17.354Z,27.42
2023-02-17T20:07:06.246Z,26.17
2023-02-17T20:18:25.217Z,26.63
2023-02-17T20:22:08.421Z,26.35
2023-02-17T20:29:45.353Z,26.12
2023-02-17T20:33:48.778Z,24.40
2023-02-17T20:45:08.918Z,25.67
2023-02-17T20:48:13.305Z,28.50
2023-02-17T20:52:06.411Z,28.37
2023-02-17T20:55:58.369Z,26.73
2023-02-17T21:02:50.647Z,22.35
2023-02-17T21:06:28.312Z,20.95
2023-02-17T21:16:46.693Z,22.30
2023-02-17T21:20:40.654Z,22.08
2023-02-17T21:35:27.317Z,21.42
2023-02-17T21:39:29.390Z,21.70
2023-02-17T21:42:52.290Z,21.33
2023-02-17T21:46:01.456Z,21.10
2023-02-17T21:49:24.495Z,20.73
2023-02-17T22:00:30.560Z,18.87
2023-02-17T22:04:04.291Z,18.30
2023-02-17T22:07:15.301Z,19.60
2023-02-17T22:10:43.933Z,14.77
2023-02-17T22:14:22.325Z,13.23
2023-02-17T22:17:31.296Z,11.23
2023-02-17T22:20:45.962Z,12.27
2023-02-17T22:23:54.278Z,12.70
2023-02-17T22:27:03.014Z,11.52
2023-02-17T22:33:59.359Z,13.07
2023-02-17T22:37:03.589Z,13.30
2023-02-17T22:40:24.692Z,12.60
2023-02-17T22:43:34.270Z,12.82
2023-02-17T22:46:43.075Z,14.30
2023-02-17T22:50:09.363Z,13.07
2023-02-17T22:57:15.087Z,12.17
2023-02-17T23:00:51.387Z,12.23
2023-02-17T23:04:07.383Z,11.50
2023-02-17T23:07:16.058Z,11.30
2023-02-17T23:10:25.427Z,12.97
2023-02-17T23:13:42.920Z,11.70
2023-02-17T23:16:51.512Z,11.82
2023-02-17T23:20:22.200Z,10.85
2023-02-17T23:23:24.677Z,10.85
2023-02-17T23:26:39.338Z,9.83
2023-02-17T23:29:44.483Z,10.97
2023-02-17T23:33:24.325Z,9.45
2023-02-17T23:36:39.292Z,9.35
2023-02-17T23:39:48.536Z,9.40
2023-02-17T23:43:43.045Z,9.30
2023-02-17T23:46:50.845Z,8.53
2023-02-17T23:54:05.285Z,8.13
2023-02-17T23:57:14.079Z,8.45
